createdAt,value
2019-01-06T00:00:28.920Z,10.18
2019-01-06T00:03:19.337Z,11.12
2019-01-06T00:06:07.956Z,11.00
2019-01-06T00:09:10.932Z,11.40
2019-01-06T00:11:55.804Z,10.78
2019-01-06T00:14:46.127Z,10.63
2019-01-06T00:17:32.487Z,10.85
2019-01-06T00:20:15.162Z,10.30
2019-01-06T00:23:01.479Z,11.20
2019-01-06T00:25:47.138Z,10.38
2019-01-06T00:28:34.731Z,10.75
2019-01-06T00:31:27.240Z,11.15
2019-01-06T00:34:14.800Z,10.03
2019-01-06T00:37:00.796Z,9.98
2019-01-06T00:39:51.044Z,10.70
2019-01-06T00:42:37.424Z,10.25
2019-01-06T00:45:36.971Z,10.78
2019-01-06T00:48:23.071Z,10.55
2019-01-06T00:51:18.868Z,9.83
2019-01-06T00:54:18.099Z,9.40
2019-01-06T00:57:14.553Z,9.98
2019-01-06T01:00:02.147Z,9.75
2019-01-06T01:02:58.453Z,9.28
2019-01-06T01:05:46.273Z,8.88
2019-01-06T01:08:32.605Z,9.33
2019-01-06T01:11:23.197Z,8.43
2019-01-06T01:14:10.612Z,8.33
2019-01-06T01:16:50.388Z,9.10
2019-01-06T01:19:37.900Z,9.05
2019-01-06T01:22:37.536Z,8.15
2019-01-06T01:25:34.075Z,8.25
2019-01-06T01:28:27.887Z,8.63
2019-01-06T01:31:27.218Z,8.35
2019-01-06T01:34:30.994Z,8.00
2019-01-06T01:37:30.459Z,7.80
2019-01-06T01:40:23.816Z,7.45
2019-01-06T01:43:28.090Z,8.18
2019-01-06T01:46:13.892Z,7.50
2019-01-06T01:49:00.093Z,7.33
2019-01-06T01:51:46.622Z,7.95
2019-01-06T01:54:46.007Z,7.58
2019-01-06T01:57:33.615Z,6.60
2019-01-06T02:00:21.080Z,6.67
2019-01-06T02:03:15.171Z,6.10
2019-01-06T02:06:04.743Z,5.80
2019-01-06T02:09:03.943Z,5.83
2019-01-06T02:11:51.991Z,6.17
2019-01-06T02:14:37.812Z,5.20
2019-01-06T02:17:21.262Z,5.70
2019-01-06T02:20:11.676Z,5.70
2019-01-06T02:22:57.502Z,5.60
2019-01-06T02:25:54.251Z,6.00
2019-01-06T02:28:44.542Z,5.95
2019-01-06T02:31:30.380Z,5.70
2019-01-06T02:34:29.579Z,5.92
2019-01-06T02:37:22.879Z,6.60
2019-01-06T02:40:08.677Z,5.90
2019-01-06T02:43:11.242Z,6.40
2019-01-06T02:45:57.749Z,5.95
2019-01-06T02:48:43.995Z,6.15
2019-01-06T02:51:29.895Z,6.40
2019-01-06T02:54:17.323Z,6.72
2019-01-06T02:57:22.820Z,6.67
2019-01-06T03:00:28.741Z,5.70
2019-01-06T03:03:19.369Z,6.17
2019-01-06T03:06:03.600Z,6.17
2019-01-06T03:08:59.802Z,6.58
2019-01-06T03:11:47.345Z,6.28
2019-01-06T03:14:34.701Z,6.45
2019-01-06T03:17:11.785Z,7.20
2019-01-06T03:19:57.779Z,7.00
2019-01-06T03:23:03.807Z,6.60
2019-01-06T03:25:56.983Z,6.67
2019-01-06T03:28:46.303Z,7.00
2019-01-06T03:31:36.748Z,7.10
2019-01-06T03:34:23.121Z,7.15
2019-01-06T03:37:16.193Z,6.35
2019-01-06T03:40:03.675Z,7.03
2019-01-06T03:42:51.236Z,7.08
2019-01-06T03:45:53.547Z,6.90
2019-01-06T03:48:47.954Z,6.70
2019-01-06T03:51:35.505Z,6.70
2019-01-06T03:54:40.823Z,5.70
2019-01-06T03:57:28.308Z,6.90
2019-01-06T04:00:14.435Z,6.62
2019-01-06T04:03:13.934Z,6.22
2019-01-06T04:06:12.097Z,6.78
2019-01-06T04:08:58.035Z,5.80
2019-01-06T04:11:44.396Z,6.15
2019-01-06T04:14:30.388Z,5.58
2019-01-06T04:17:24.553Z,5.80
2019-01-06T04:20:21.055Z,7.00
2019-01-06T04:23:20.568Z,6.60
2019-01-06T04:26:13.825Z,5.92
2019-01-06T04:28:58.497Z,6.20
2019-01-06T04:31:44.678Z,5.78
2019-01-06T04:34:31.298Z,6.28
2019-01-06T04:37:21.413Z,6.10
2019-01-06T04:40:06.693Z,6.28
2019-01-06T04:43:07.212Z,5.50
2019-01-06T04:45:53.364Z,5.60
2019-01-06T04:48:43.517Z,6.00
2019-01-06T04:51:45.997Z,5.15
2019-01-06T04:54:32.320Z,6.10
2019-01-06T04:57:34.780Z,6.37
2019-01-06T05:00:22.311Z,5.70
2019-01-06T05:03:24.956Z,5.53
2019-01-06T05:06:11.257Z,4.80
2019-01-06T05:08:57.672Z,5.70
2019-01-06T05:11:49.831Z,5.60
2019-01-06T05:14:38.907Z,4.78
2019-01-06T05:17:29.124Z,5.62
2019-01-06T05:20:22.287Z,5.90
2019-01-06T05:23:08.009Z,5.22
2019-01-06T05:25:54.102Z,6.10
2019-01-06T05:28:44.126Z,5.70
2019-01-06T05:31:37.645Z,5.45
2019-01-06T05:34:25.013Z,6.20
2019-01-06T05:37:21.396Z,5.90
2019-01-06T05:40:02.562Z,6.30
2019-01-06T05:42:50.328Z,5.85
2019-01-06T05:45:46.527Z,5.92
2019-01-06T05:48:42.935Z,5.80
2019-01-06T05:51:30.375Z,6.30
2019-01-06T05:54:36.380Z,6.45
2019-01-06T05:57:22.455Z,6.60
2019-01-06T06:00:08.787Z,6.42
2019-01-06T06:03:02.481Z,7.08
2019-01-06T06:06:07.855Z,6.95
2019-01-06T06:09:07.097Z,7.22
2019-01-06T06:11:57.507Z,6.97
2019-01-06T06:14:54.311Z,6.40
2019-01-06T06:17:44.699Z,7.05
2019-01-06T06:20:35.498Z,5.90
2019-01-06T06:23:31.683Z,7.00
2019-01-06T06:26:17.904Z,8.20
2019-01-06T06:29:03.840Z,7.03
2019-01-06T06:31:57.484Z,7.70
2019-01-06T06:34:48.012Z,7.58
2019-01-06T06:37:31.351Z,7.78
2019-01-06T06:40:18.970Z,7.47
2019-01-06T06:43:07.617Z,7.30
2019-01-06T06:45:56.167Z,7.80
2019-01-06T06:48:52.321Z,7.80
2019-01-06T06:51:58.083Z,7.50
2019-01-06T06:54:48.148Z,7.65
2019-01-06T06:58:10.621Z,7.12
2019-01-06T07:00:59.759Z,7.60
2019-01-06T07:04:01.449Z,7.93
2019-01-06T07:07:04.075Z,7.53
2019-01-06T07:09:49.977Z,8.33
2019-01-06T07:12:36.256Z,8.80
2019-01-06T07:15:42.205Z,8.30
2019-01-06T07:18:41.097Z,8.30
2019-01-06T07:21:27.663Z,8.50
2019-01-06T07:24:13.564Z,9.05
2019-01-06T07:27:00.979Z,8.80
2019-01-06T07:29:47.431Z,8.10
2019-01-06T07:32:33.289Z,8.00
2019-01-06T07:35:39.262Z,7.53
2019-01-06T07:38:25.373Z,8.38
2019-01-06T07:41:27.340Z,8.50
2019-01-06T07:44:24.801Z,8.30
2019-01-06T07:47:19.253Z,9.10
2019-01-06T07:50:00.629Z,8.60
2019-01-06T07:52:46.661Z,8.98
2019-01-06T07:55:32.594Z,9.35
2019-01-06T07:58:22.592Z,9.08
2019-01-06T08:01:15.908Z,9.03
2019-01-06T08:04:05.995Z,9.25
2019-01-06T08:06:56.510Z,9.08
2019-01-06T08:09:43.939Z,9.65
2019-01-06T08:12:43.504Z,9.78
2019-01-06T08:15:42.092Z,9.83
2019-01-06T08:18:28.661Z,8.58
2019-01-06T08:21:18.656Z,9.45
2019-01-06T08:24:06.275Z,9.50
2019-01-06T08:27:03.880Z,8.23
2019-01-06T08:29:51.759Z,9.48
2019-01-06T08:32:30.963Z,9.27
2019-01-06T08:35:33.310Z,9.23
2019-01-06T08:38:20.933Z,8.53
2019-01-06T08:41:08.567Z,8.93
2019-01-06T08:44:02.359Z,8.73
2019-01-06T08:47:05.359Z,8.10
2019-01-06T08:49:53.289Z,8.40
2019-01-06T08:52:42.870Z,7.67
2019-01-06T08:55:29.165Z,7.80
2019-01-06T08:58:15.616Z,7.92
2019-01-06T09:01:03.264Z,8.00
2019-01-06T09:03:50.726Z,8.38
2019-01-06T09:06:38.151Z,7.50
2019-01-06T09:09:28.395Z,8.30
2019-01-06T09:12:18.735Z,7.70
2019-01-06T09:15:17.959Z,7.60
2019-01-06T09:18:05.471Z,6.75
2019-01-06T09:21:05.219Z,6.65
2019-01-06T09:24:08.219Z,7.10
2019-01-06T09:27:06.647Z,7.00
2019-01-06T09:30:00.284Z,7.83
2019-01-06T09:33:00.022Z,7.65
2019-01-06T09:35:50.382Z,7.30
2019-01-06T09:38:36.612Z,6.87
2019-01-06T09:41:24.288Z,7.10
2019-01-06T09:44:14.820Z,6.20
2019-01-06T09:47:11.574Z,6.25
2019-01-06T09:50:08.200Z,6.10
2019-01-06T09:52:54.412Z,6.35
2019-01-06T09:55:40.454Z,6.58
2019-01-06T09:58:27.611Z,6.03
2019-01-06T10:01:24.969Z,6.22
2019-01-06T10:04:11.716Z,6.20
2019-01-06T10:07:17.358Z,6.30
2019-01-06T10:10:17.598Z,5.78
2019-01-06T10:13:10.140Z,6.65
2019-01-06T10:16:04.611Z,6.03
2019-01-06T10:19:00.724Z,6.47
2019-01-06T10:22:04.118Z,6.80
2019-01-06T10:24:52.141Z,6.70
2019-01-06T10:27:38.909Z,8.25
2019-01-06T10:30:20.903Z,6.25
2019-01-06T10:33:10.966Z,6.72
2019-01-06T10:36:13.854Z,6.75
2019-01-06T10:39:09.027Z,7.50
2019-01-06T10:42:08.804Z,6.58
2019-01-06T10:45:02.509Z,6.30
2019-01-06T10:47:53.120Z,6.15
2019-01-06T10:50:36.008Z,7.45
2019-01-06T10:53:29.792Z,7.72
2019-01-06T10:56:20.598Z,5.97
2019-01-06T10:59:06.912Z,6.10
2019-01-06T11:02:04.118Z,6.50
2019-01-06T11:04:54.572Z,6.62
2019-01-06T11:07:48.239Z,6.00
2019-01-06T11:10:34.475Z,6.87
2019-01-06T11:13:26.805Z,7.05
2019-01-06T11:16:13.303Z,6.45
2019-01-06T11:18:59.208Z,6.22
2019-01-06T11:21:49.360Z,6.60
2019-01-06T11:24:45.810Z,7.20
2019-01-06T11:27:48.467Z,6.85
2019-01-06T11:30:34.814Z,6.60
2019-01-06T11:33:21.330Z,6.45
2019-01-06T11:36:07.286Z,7.40
2019-01-06T11:39:09.647Z,7.12
2019-01-06T11:42:09.292Z,7.30
2019-01-06T11:45:02.778Z,7.62
2019-01-06T11:48:08.499Z,7.30
2019-01-06T11:50:54.683Z,7.67
2019-01-06T11:53:49.799Z,7.78
2019-01-06T11:56:37.204Z,8.28
2019-01-06T11:59:30.389Z,8.78
2019-01-06T12:02:26.721Z,8.30
2019-01-06T12:05:26.201Z,7.87
2019-01-06T12:08:11.395Z,7.97
2019-01-06T12:10:58.869Z,7.70
2019-01-06T12:13:58.798Z,8.00
2019-01-06T12:16:46.692Z,7.10
2019-01-06T12:19:42.887Z,7.83
2019-01-06T12:22:42.173Z,7.60
2019-01-06T12:25:38.620Z,7.40
2019-01-06T12:28:26.350Z,7.35
2019-01-06T12:31:13.376Z,7.40
2019-01-06T12:33:59.362Z,6.85
2019-01-06T12:36:47.526Z,7.15
2019-01-06T12:39:47.872Z,6.60
2019-01-06T12:42:35.047Z,6.80
2019-01-06T12:45:39.904Z,5.83
2019-01-06T12:48:40.202Z,6.47
2019-01-06T12:51:26.555Z,6.05
2019-01-06T12:54:10.047Z,6.20
2019-01-06T12:57:06.571Z,6.00
2019-01-06T12:59:52.437Z,6.17
2019-01-06T13:02:38.377Z,6.50
2019-01-06T13:05:44.641Z,5.30
2019-01-06T13:08:30.905Z,6.08
2019-01-06T13:11:26.110Z,5.53
2019-01-06T13:14:22.661Z,6.97
2019-01-06T13:17:08.548Z,6.80
2019-01-06T13:19:54.636Z,5.70
2019-01-06T13:22:51.057Z,5.50
2019-01-06T13:25:53.608Z,6.05
2019-01-06T13:28:39.576Z,6.30
2019-01-06T13:31:25.828Z,5.40
2019-01-06T13:34:13.491Z,5.03
2019-01-06T13:37:16.068Z,5.40
2019-01-06T13:40:06.300Z,5.10
2019-01-06T13:42:53.827Z,4.40
2019-01-06T13:45:59.735Z,4.57
2019-01-06T13:48:53.112Z,4.28
2019-01-06T13:51:34.289Z,4.70
2019-01-06T13:54:35.417Z,5.00
2019-01-06T13:57:21.621Z,5.07
2019-01-06T14:00:21.211Z,5.60
2019-01-06T14:03:26.783Z,6.33
2019-01-06T14:06:12.991Z,6.40
2019-01-06T14:09:03.260Z,6.43
2019-01-06T14:11:56.562Z,6.90
2019-01-06T14:14:53.207Z,6.53
2019-01-06T14:17:38.533Z,6.50
2019-01-06T14:20:44.586Z,6.50
2019-01-06T14:23:46.762Z,6.80
2019-01-06T14:26:40.154Z,7.00
2019-01-06T14:29:33.444Z,6.80
2019-01-06T14:32:23.746Z,6.10
2019-01-06T14:35:11.540Z,6.50
2019-01-06T14:38:17.454Z,6.67
2019-01-06T14:41:09.000Z,6.58
2019-01-06T14:43:56.226Z,6.28
2019-01-06T14:46:43.771Z,6.10
2019-01-06T14:49:37.895Z,6.00
2019-01-06T14:52:43.721Z,5.80
2019-01-06T14:55:35.293Z,5.80
2019-01-06T14:58:28.275Z,5.72
2019-01-06T15:01:31.668Z,5.87
2019-01-06T15:04:30.963Z,6.35
2019-01-06T15:07:22.727Z,6.37
2019-01-06T15:10:10.728Z,6.22
2019-01-06T15:12:59.791Z,7.00
2019-01-06T15:15:50.895Z,6.70
2019-01-06T15:18:59.409Z,6.95
2019-01-06T15:21:51.828Z,6.50
2019-01-06T15:24:40.622Z,6.47
2019-01-06T15:27:31.717Z,7.00
2019-01-06T15:30:30.012Z,7.50
2019-01-06T15:33:20.099Z,7.58
2019-01-06T15:36:11.719Z,7.45
2019-01-06T15:39:00.927Z,7.83
2019-01-06T15:41:51.277Z,7.60
2019-01-06T15:44:41.673Z,8.30
2019-01-06T15:47:40.381Z,8.33
2019-01-06T15:50:37.943Z,8.60
2019-01-06T15:53:28.850Z,8.48
2019-01-06T15:56:16.957Z,9.40
2019-01-06T15:59:06.573Z,9.28
2019-01-06T16:01:58.084Z,8.90
2019-01-06T16:04:47.163Z,9.23
2019-01-06T16:07:39.638Z,9.20
2019-01-06T16:10:33.348Z,9.20
2019-01-06T16:13:38.006Z,9.90
2019-01-06T16:16:28.689Z,10.78
2019-01-06T16:19:23.282Z,10.07
2019-01-06T16:22:26.203Z,10.68
2019-01-06T16:25:19.924Z,10.55
2019-01-06T16:28:16.019Z,11.35
2019-01-06T16:31:09.420Z,11.50
2019-01-06T16:34:03.910Z,10.50
2019-01-06T16:36:52.668Z,11.45
2019-01-06T16:39:48.055Z,12.18
2019-01-06T16:42:31.840Z,11.57
2019-01-06T16:45:34.221Z,12.20
2019-01-06T16:48:25.129Z,11.57
2019-01-06T16:51:15.743Z,11.90
2019-01-06T16:54:02.816Z,11.60
2019-01-06T16:56:48.913Z,12.55
2019-01-06T16:59:45.478Z,11.88
2019-01-06T17:02:33.736Z,11.70
2019-01-06T17:05:22.148Z,11.80
2019-01-06T17:08:20.975Z,12.70
2019-01-06T17:11:09.483Z,12.73
2019-01-06T17:14:20.206Z,12.55
2019-01-06T17:17:19.566Z,12.88
2019-01-06T17:20:14.766Z,15.50
2019-01-06T17:23:25.354Z,17.95
2019-01-06T17:26:39.436Z,15.58
2019-01-06T17:29:25.934Z,13.58
2019-01-06T17:32:12.404Z,13.75
2019-01-06T17:35:21.633Z,12.68
2019-01-06T17:38:13.886Z,14.07
2019-01-06T17:41:03.332Z,13.70
2019-01-06T17:44:03.651Z,13.58
2019-01-06T17:47:00.298Z,13.83
2019-01-06T17:49:54.612Z,13.85
2019-01-06T17:52:44.932Z,13.95
2019-01-06T17:55:47.799Z,14.10
2019-01-06T17:58:57.762Z,14.50
2019-01-06T18:01:57.158Z,15.20
2019-01-06T18:04:47.816Z,13.40
2019-01-06T18:07:40.162Z,12.98
2019-01-06T18:10:38.337Z,14.10
2019-01-06T18:13:34.465Z,15.20
2019-01-06T18:16:32.463Z,14.63
2019-01-06T18:19:23.366Z,15.15
2019-01-06T18:22:11.587Z,14.30
2019-01-06T18:25:09.609Z,14.70
2019-01-06T18:27:59.743Z,14.90
2019-01-06T18:30:49.009Z,15.68
2019-01-06T18:33:37.893Z,15.30
2019-01-06T18:36:24.482Z,14.93
2019-01-06T18:39:11.770Z,13.68
2019-01-06T18:42:01.042Z,14.20
2019-01-06T18:44:54.152Z,15.18
2019-01-06T18:47:41.775Z,13.70
2019-01-06T18:50:32.146Z,14.63
2019-01-06T18:53:33.405Z,14.40
2019-01-06T18:56:39.774Z,14.40
2019-01-06T18:59:28.221Z,15.90
2019-01-06T19:02:34.382Z,15.55
2019-01-06T19:05:21.467Z,14.53
2019-01-06T19:08:04.112Z,15.58
2019-01-06T19:10:58.419Z,14.83
2019-01-06T19:13:53.603Z,16.90
2019-01-06T19:16:40.804Z,15.43
2019-01-06T19:19:29.621Z,17.05
2019-01-06T19:22:18.438Z,15.45
2019-01-06T19:25:07.685Z,14.53
2019-01-06T19:27:58.715Z,14.60
2019-01-06T19:30:59.569Z,13.75
2019-01-06T19:34:10.284Z,15.50
2019-01-06T19:37:06.557Z,15.70
2019-01-06T19:40:02.788Z,14.35
2019-01-06T19:43:09.453Z,13.72
2019-01-06T19:45:57.318Z,13.90
2019-01-06T19:48:54.215Z,13.80
2019-01-06T19:51:52.390Z,14.53
2019-01-06T19:54:38.922Z,12.57
2019-01-06T19:57:19.898Z,14.07
2019-01-06T20:00:22.424Z,12.90
2019-01-06T20:03:13.892Z,13.03
2019-01-06T20:06:05.709Z,12.70
2019-01-06T20:08:52.817Z,12.23
2019-01-06T20:11:41.898Z,11.53
2019-01-06T20:14:30.217Z,11.18
2019-01-06T20:17:26.883Z,12.27
2019-01-06T20:20:15.690Z,12.55
2019-01-06T20:23:02.182Z,13.20
2019-01-06T20:25:50.525Z,13.50
2019-01-06T20:28:32.216Z,13.88
2019-01-06T20:31:21.340Z,12.75
2019-01-06T20:34:13.874Z,14.03
2019-01-06T20:37:04.029Z,13.53
2019-01-06T20:39:52.570Z,13.50
2019-01-06T20:42:45.709Z,12.88
2019-01-06T20:45:35.668Z,13.35
2019-01-06T20:48:22.619Z,14.28
2019-01-06T20:51:15.341Z,14.45
2019-01-06T20:54:03.523Z,14.20
2019-01-06T20:57:01.723Z,13.75
2019-01-06T20:59:55.960Z,13.50
2019-01-06T21:03:01.401Z,13.00
2019-01-06T21:05:50.683Z,13.53
2019-01-06T21:08:38.049Z,14.23
2019-01-06T21:11:18.973Z,15.30
2019-01-06T21:14:05.154Z,15.03
2019-01-06T21:16:51.412Z,15.13
2019-01-06T21:19:57.468Z,15.45
2019-01-06T21:22:44.336Z,14.05
2019-01-06T21:25:47.100Z,13.95
2019-01-06T21:28:32.815Z,14.95
2019-01-06T21:31:18.956Z,14.85
2019-01-06T21:33:57.115Z,14.35
2019-01-06T21:36:43.531Z,14.33
2019-01-06T21:39:30.947Z,14.93
2019-01-06T21:42:34.473Z,14.60
2019-01-06T21:45:20.926Z,14.00
2019-01-06T21:48:08.462Z,15.60
2019-01-06T21:51:02.527Z,14.58
2019-01-06T21:53:50.055Z,15.78
2019-01-06T21:56:51.572Z,15.35
2019-01-06T21:59:39.124Z,15.78
2019-01-06T22:02:26.420Z,16.50
2019-01-06T22:05:12.540Z,16.40
2019-01-06T22:08:15.560Z,15.68
2019-01-06T22:11:13.275Z,15.72
2019-01-06T22:14:00.775Z,16.45
2019-01-06T22:17:00.254Z,15.95
2019-01-06T22:19:53.735Z,16.85
2019-01-06T22:22:41.314Z,17.60
2019-01-06T22:25:28.758Z,17.45
2019-01-06T22:28:25.303Z,18.10
2019-01-06T22:31:11.391Z,18.15
2019-01-06T22:33:57.508Z,18.40
2019-01-06T22:37:03.636Z,16.57
2019-01-06T22:39:43.517Z,17.23
2019-01-06T22:42:29.665Z,17.90
2019-01-06T22:45:13.163Z,17.62
2019-01-06T22:48:03.465Z,17.40
2019-01-06T22:50:51.042Z,16.90
2019-01-06T22:53:36.734Z,15.03
2019-01-06T22:56:29.767Z,15.00
2019-01-06T22:59:19.775Z,15.40
2019-01-06T23:02:22.511Z,15.93
2019-01-06T23:05:12.140Z,14.70
2019-01-06T23:08:05.904Z,13.90
2019-01-06T23:10:59.585Z,13.88
2019-01-06T23:14:01.977Z,15.75
2019-01-06T23:16:48.890Z,15.10
2019-01-06T23:19:48.887Z,14.38
2019-01-06T23:22:42.425Z,15.15
2019-01-06T23:25:28.154Z,14.35
2019-01-06T23:28:14.532Z,15.08
2019-01-06T23:31:02.045Z,15.43
2019-01-06T23:33:55.222Z,13.68
2019-01-06T23:36:41.337Z,16.12
2019-01-06T23:39:31.495Z,15.90
2019-01-06T23:42:34.200Z,15.30
2019-01-06T23:45:20.443Z,15.28
2019-01-06T23:48:07.921Z,15.65
2019-01-06T23:50:55.041Z,16.40
2019-01-06T23:53:51.642Z,15.10
2019-01-06T23:56:34.910Z,15.00
2019-01-06T23:59:38.966Z,15.72
